Check out our new PWSWeather beta!
PWSweather.com
Personal Weather Stations
Station Observations

YeovilGB

Lat: 50.949, Lon: -2.627

Elevation: 70

Station Type: Vantage Pro

http://www.yeovil-weather.me.uk/

High Low Average
Temperature 52.1°F11.2°C 39.7°F4.3°C 46.5°F8.1°C
Dew Point 48.3°F9.1°C 37.8°F3.2°C 44.0°F6.7°C
Winds 4.6 mph 7.4 kmh Calm Calm Calm SSWCalm SSW
Wind Gusts 8.1 mph13.0 kmh -- 1.0 mph1.6 kmh
Humidity 96% 78% 91%
Pressure 29.76 in1007.8 mb 29.33 in993.2 mb -
Precipitation 0.50 in12.7 mm - -
Hour Temp Dew Point Humidity Winds Wind Gusts Pressure Precip Precip Rate Daily Precip Total
12:00 AM 47.9°F8.8°C 45.1°F7.3°C 90% Calm Calm -- 29.75 in1007.5 mb - 0.00 in0.0 mm 0.00 in0.0 mm
12:10 AM 47.8°F8.8°C 45.0°F7.2°C 90% Calm Calm -- 29.75 in1007.5 mb - 0.00 in0.0 mm 0.00 in0.0 mm
12:20 AM 47.8°F8.8°C 45.0°F7.2°C 90% Calm Calm -- 29.75 in1007.5 mb - 0.00 in0.0 mm 0.00 in0.0 mm
12:30 AM 47.7°F8.7°C 44.9°F7.2°C 90% Calm Calm -- 29.75 in1007.5 mb - 0.00 in0.0 mm 0.00 in0.0 mm
12:40 AM 47.7°F8.7°C 44.9°F7.2°C 90% Calm Calm -- 29.75 in1007.5 mb - 0.00 in0.0 mm 0.00 in0.0 mm
12:50 AM 47.6°F8.7°C 45.1°F7.3°C 91% Calm Calm -- 29.75 in1007.5 mb - 0.00 in0.0 mm 0.00 in0.0 mm
01:00 AM 47.6°F8.7°C 45.1°F7.3°C 91% Calm Calm -- 29.75 in1007.5 mb - 0.00 in0.0 mm 0.00 in0.0 mm
01:10 AM 47.5°F8.6°C 45.0°F7.2°C 91% Calm Calm -- 29.75 in1007.5 mb - 0.00 in0.0 mm 0.00 in0.0 mm
01:20 AM 47.5°F8.6°C 45.0°F7.2°C 91% Calm Calm -- 29.75 in1007.5 mb - 0.00 in0.0 mm 0.00 in0.0 mm
01:30 AM 47.4°F8.6°C 44.9°F7.2°C 91% Calm Calm -- 29.75 in1007.5 mb - 0.00 in0.0 mm 0.00 in0.0 mm
01:40 AM 47.4°F8.6°C 44.9°F7.2°C 91% Calm Calm -- 29.75 in1007.5 mb - 0.00 in0.0 mm 0.00 in0.0 mm
01:50 AM 47.3°F8.5°C 44.8°F7.1°C 91% Calm Calm -- 29.75 in1007.5 mb - 0.00 in0.0 mm 0.00 in0.0 mm
02:00 AM 47.3°F8.5°C 44.8°F7.1°C 91% Calm Calm -- 29.75 in1007.5 mb - 0.00 in0.0 mm 0.00 in0.0 mm
02:10 AM 47.2°F8.4°C 44.7°F7.1°C 91% Calm Calm -- 29.74 in1007.1 mb - 0.00 in0.0 mm 0.00 in0.0 mm
02:20 AM 47.2°F8.4°C 44.7°F7.1°C 91% Calm Calm -- 29.74 in1007.1 mb - 0.00 in0.0 mm 0.00 in0.0 mm
02:30 AM 47.1°F8.4°C 44.6°F7.0°C 91% Calm Calm -- 29.74 in1007.1 mb - 0.00 in0.0 mm 0.00 in0.0 mm
02:40 AM 47.0°F8.3°C 44.5°F6.9°C 91% Calm Calm -- 29.75 in1007.5 mb - 0.00 in0.0 mm 0.00 in0.0 mm
02:50 AM 46.9°F8.3°C 44.4°F6.9°C 91% Calm Calm -- 29.75 in1007.5 mb - 0.00 in0.0 mm 0.00 in0.0 mm
03:00 AM 46.8°F8.2°C 44.3°F6.8°C 91% Calm Calm -- 29.75 in1007.5 mb - 0.00 in0.0 mm 0.00 in0.0 mm
03:10 AM 46.8°F8.2°C 44.3°F6.8°C 91% Calm Calm -- 29.75 in1007.5 mb - 0.00 in0.0 mm 0.00 in0.0 mm
03:20 AM 46.5°F8.1°C 44.0°F6.7°C 91% Calm Calm -- 29.75 in1007.5 mb - 0.00 in0.0 mm 0.00 in0.0 mm
03:30 AM 46.2°F7.9°C 43.7°F6.5°C 91% Calm Calm -- 29.75 in1007.5 mb - 0.00 in0.0 mm 0.00 in0.0 mm
03:40 AM 45.9°F7.7°C 43.4°F6.3°C 91% Calm Calm -- 29.76 in1007.8 mb - 0.00 in0.0 mm 0.00 in0.0 mm
03:50 AM 45.5°F7.5°C 43.0°F6.1°C 91% Calm Calm -- 29.76 in1007.8 mb - 0.00 in0.0 mm 0.00 in0.0 mm
04:00 AM 45.1°F7.3°C 42.6°F5.9°C 91% Calm Calm -- 29.76 in1007.8 mb - 0.00 in0.0 mm 0.00 in0.0 mm
04:10 AM 44.7°F7.1°C 42.3°F5.7°C 91% Calm Calm -- 29.76 in1007.8 mb - 0.00 in0.0 mm 0.00 in0.0 mm
04:20 AM 44.4°F6.9°C 42.2°F5.7°C 92% Calm Calm -- 29.75 in1007.5 mb - 0.00 in0.0 mm 0.00 in0.0 mm
04:30 AM 44.1°F6.7°C 41.9°F5.5°C 92% Calm Calm -- 29.75 in1007.5 mb - 0.00 in0.0 mm 0.00 in0.0 mm
04:40 AM 43.7°F6.5°C 41.5°F5.3°C 92% Calm Calm -- 29.75 in1007.5 mb - 0.00 in0.0 mm 0.00 in0.0 mm
04:50 AM 43.3°F6.3°C 41.1°F5.1°C 92% Calm Calm -- 29.74 in1007.1 mb - 0.00 in0.0 mm 0.00 in0.0 mm
05:00 AM 42.9°F6.1°C 40.7°F4.8°C 92% Calm Calm -- 29.74 in1007.1 mb - 0.00 in0.0 mm 0.00 in0.0 mm
05:10 AM 42.5°F5.8°C 40.3°F4.6°C 92% Calm Calm -- 29.74 in1007.1 mb - 0.00 in0.0 mm 0.00 in0.0 mm
05:20 AM 42.2°F5.7°C 40.0°F4.4°C 92% Calm Calm -- 29.74 in1007.1 mb - 0.00 in0.0 mm 0.00 in0.0 mm
05:30 AM 41.7°F5.4°C 39.6°F4.2°C 92% Calm Calm -- 29.74 in1007.1 mb - 0.00 in0.0 mm 0.00 in0.0 mm
05:40 AM 41.3°F5.2°C 39.1°F3.9°C 92% Calm Calm -- 29.74 in1007.1 mb - 0.00 in0.0 mm 0.00 in0.0 mm
05:50 AM 40.9°F4.9°C 39.0°F3.9°C 93% Calm Calm -- 29.74 in1007.1 mb - 0.00 in0.0 mm 0.00 in0.0 mm
06:00 AM 40.6°F4.8°C 38.7°F3.7°C 93% Calm Calm -- 29.74 in1007.1 mb - 0.00 in0.0 mm 0.00 in0.0 mm
06:10 AM 40.2°F4.6°C 38.4°F3.6°C 93% Calm Calm -- 29.74 in1007.1 mb - 0.00 in0.0 mm 0.00 in0.0 mm
06:20 AM 40.0°F4.4°C 38.1°F3.4°C 93% Calm Calm -- 29.73 in1006.8 mb - 0.00 in0.0 mm 0.00 in0.0 mm
06:30 AM 39.7°F4.3°C 37.8°F3.2°C 93% Calm Calm -- 29.73 in1006.8 mb - 0.00 in0.0 mm 0.00 in0.0 mm
06:40 AM 39.7°F4.3°C 38.1°F3.4°C 94% Calm Calm -- 29.74 in1007.1 mb - 0.00 in0.0 mm 0.00 in0.0 mm
06:50 AM 39.7°F4.3°C 38.1°F3.4°C 94% Calm Calm -- 29.74 in1007.1 mb - 0.00 in0.0 mm 0.00 in0.0 mm
07:00 AM 39.7°F4.3°C 38.1°F3.4°C 94% Calm Calm -- 29.74 in1007.1 mb - 0.00 in0.0 mm 0.00 in0.0 mm
07:10 AM 39.7°F4.3°C 38.1°F3.4°C 94% Calm Calm -- 29.73 in1006.8 mb - 0.00 in0.0 mm 0.00 in0.0 mm
07:20 AM 39.7°F4.3°C 38.1°F3.4°C 94% Calm Calm -- 29.73 in1006.8 mb - 0.00 in0.0 mm 0.00 in0.0 mm
07:30 AM 39.7°F4.3°C 38.1°F3.4°C 94% Calm Calm -- 29.73 in1006.8 mb - 0.00 in0.0 mm 0.00 in0.0 mm
07:40 AM 39.9°F4.4°C 38.6°F3.7°C 95% Calm Calm -- 29.73 in1006.8 mb - 0.00 in0.0 mm 0.00 in0.0 mm
07:50 AM 40.2°F4.6°C 38.9°F3.8°C 95% Calm Calm -- 29.73 in1006.8 mb - 0.00 in0.0 mm 0.00 in0.0 mm
08:00 AM 40.3°F4.6°C 39.0°F3.9°C 95% Calm Calm -- 29.73 in1006.8 mb - 0.00 in0.0 mm 0.00 in0.0 mm
08:10 AM 40.4°F4.7°C 39.1°F3.9°C 95% Calm Calm -- 29.73 in1006.8 mb - 0.00 in0.0 mm 0.00 in0.0 mm
08:20 AM 40.5°F4.7°C 39.2°F4.0°C 95% Calm Calm -- 29.73 in1006.8 mb - 0.00 in0.0 mm 0.00 in0.0 mm
08:30 AM 40.7°F4.8°C 39.4°F4.1°C 95% Calm Calm -- 29.72 in1006.4 mb - 0.00 in0.0 mm 0.00 in0.0 mm
08:40 AM 41.0°F5.0°C 39.7°F4.3°C 95% Calm Calm -- 29.72 in1006.4 mb - 0.00 in0.0 mm 0.00 in0.0 mm
08:50 AM 41.4°F5.2°C 40.4°F4.7°C 96% Calm Calm -- 29.72 in1006.4 mb - 0.00 in0.0 mm 0.00 in0.0 mm
09:00 AM 41.9°F5.5°C 40.8°F4.9°C 96% 1.2 mph SE1.9 kmh SE 3.5 mph5.6 kmh 29.71 in1006.1 mb - 0.00 in0.0 mm 0.00 in0.0 mm
09:10 AM 42.3°F5.7°C 40.9°F4.9°C 95% Calm Calm -- 29.71 in1006.1 mb - 0.00 in0.0 mm 0.00 in0.0 mm
09:20 AM 42.8°F6.0°C 41.7°F5.4°C 96% Calm Calm -- 29.71 in1006.1 mb - 0.00 in0.0 mm 0.00 in0.0 mm
09:30 AM 43.3°F6.3°C 42.2°F5.7°C 96% Calm Calm -- 29.71 in1006.1 mb - 0.00 in0.0 mm 0.00 in0.0 mm
09:40 AM 44.0°F6.7°C 42.7°F5.9°C 95% Calm Calm -- 29.71 in1006.1 mb - 0.00 in0.0 mm 0.00 in0.0 mm
09:50 AM 44.5°F6.9°C 43.2°F6.2°C 95% Calm Calm -- 29.70 in1005.8 mb - 0.00 in0.0 mm 0.00 in0.0 mm
10:00 AM 45.4°F7.4°C 44.1°F6.7°C 95% Calm Calm -- 29.70 in1005.8 mb - 0.00 in0.0 mm 0.00 in0.0 mm
10:10 AM 46.2°F7.9°C 44.6°F7.0°C 94% Calm Calm -- 29.70 in1005.8 mb - 0.00 in0.0 mm 0.00 in0.0 mm
10:20 AM 47.4°F8.6°C 45.4°F7.4°C 93% Calm Calm -- 29.70 in1005.8 mb - 0.00 in0.0 mm 0.00 in0.0 mm
10:30 AM 48.2°F9.0°C 46.0°F7.8°C 92% Calm Calm -- 29.70 in1005.8 mb - 0.00 in0.0 mm 0.00 in0.0 mm
10:40 AM 48.9°F9.4°C 46.3°F7.9°C 91% Calm Calm 3.5 mph5.6 kmh 29.70 in1005.8 mb - 0.00 in0.0 mm 0.00 in0.0 mm
10:50 AM 49.3°F9.6°C 46.2°F7.9°C 89% 2.3 mph SSW3.7 kmh SSW 6.9 mph11.1 kmh 29.69 in1005.4 mb - 0.00 in0.0 mm 0.00 in0.0 mm
11:00 AM 49.3°F9.6°C 46.2°F7.9°C 89% 2.3 mph SSW3.7 kmh SSW 6.9 mph11.1 kmh 29.69 in1005.4 mb - 0.00 in0.0 mm 0.00 in0.0 mm
11:20 AM 50.0°F10.0°C 46.3°F7.9°C 87% Calm Calm -- 29.67 in1004.7 mb - 0.00 in0.0 mm 0.00 in0.0 mm
11:30 AM 50.1°F10.1°C 46.3°F7.9°C 87% Calm Calm 1.2 mph1.9 kmh 29.67 in1004.7 mb - 0.00 in0.0 mm 0.00 in0.0 mm
11:40 AM 50.2°F10.1°C 46.5°F8.1°C 87% 1.2 mph SSE1.9 kmh SSE 5.8 mph9.3 kmh 29.67 in1004.7 mb - 0.00 in0.0 mm 0.00 in0.0 mm
11:50 AM 50.4°F10.2°C 47.0°F8.3°C 88% Calm Calm 1.2 mph1.9 kmh 29.66 in1004.4 mb - 0.00 in0.0 mm 0.00 in0.0 mm
12:00 PM 50.4°F10.2°C 46.7°F8.2°C 87% 3.5 mph SW5.6 kmh SW 5.8 mph9.3 kmh 29.65 in1004.1 mb - 0.00 in0.0 mm 0.00 in0.0 mm
12:10 PM 50.3°F10.2°C 46.6°F8.1°C 87% 4.6 mph S7.4 kmh S 4.6 mph7.4 kmh 29.65 in1004.1 mb - 0.00 in0.0 mm 0.00 in0.0 mm
12:20 PM 50.2°F10.1°C 46.7°F8.2°C 88% Calm Calm -- 29.65 in1004.1 mb - 0.00 in0.0 mm 0.00 in0.0 mm
12:30 PM 50.1°F10.1°C 47.3°F8.5°C 90% 1.2 mph S1.9 kmh S 5.8 mph9.3 kmh 29.64 in1003.7 mb - 0.00 in0.0 mm 0.00 in0.0 mm
12:40 PM 50.3°F10.2°C 47.8°F8.8°C 91% 1.2 mph S1.9 kmh S 2.3 mph3.7 kmh 29.64 in1003.7 mb - 0.00 in0.0 mm 0.00 in0.0 mm
12:50 PM 50.3°F10.2°C 47.8°F8.8°C 91% Calm Calm 1.2 mph1.9 kmh 29.63 in1003.4 mb - 0.00 in0.0 mm 0.00 in0.0 mm
01:00 PM 50.5°F10.3°C 48.0°F8.9°C 91% Calm Calm 2.3 mph3.7 kmh 29.63 in1003.4 mb - 0.00 in0.0 mm 0.00 in0.0 mm
01:10 PM 50.8°F10.4°C 48.3°F9.1°C 91% 2.3 mph SSW3.7 kmh SSW 4.6 mph7.4 kmh 29.62 in1003.0 mb - 0.00 in0.0 mm 0.00 in0.0 mm
01:20 PM 51.0°F10.6°C 47.9°F8.8°C 89% 2.3 mph SW3.7 kmh SW 5.8 mph9.3 kmh 29.62 in1003.0 mb - 0.00 in0.0 mm 0.00 in0.0 mm
01:30 PM 51.0°F10.6°C 47.3°F8.5°C 87% 1.2 mph SW1.9 kmh SW 3.5 mph5.6 kmh 29.62 in1003.0 mb - 0.00 in0.0 mm 0.00 in0.0 mm
01:40 PM 51.2°F10.7°C 47.2°F8.4°C 86% 1.2 mph SW1.9 kmh SW 3.5 mph5.6 kmh 29.61 in1002.7 mb - 0.00 in0.0 mm 0.00 in0.0 mm
01:50 PM 51.4°F10.8°C 46.7°F8.2°C 84% 1.2 mph S1.9 kmh S 3.5 mph5.6 kmh 29.61 in1002.7 mb - 0.00 in0.0 mm 0.00 in0.0 mm
02:00 PM 51.4°F10.8°C 46.4°F8.0°C 83% 1.2 mph SSW1.9 kmh SSW 1.2 mph1.9 kmh 29.60 in1002.4 mb - 0.00 in0.0 mm 0.00 in0.0 mm
02:10 PM 51.5°F10.8°C 46.2°F7.9°C 82% 3.5 mph S5.6 kmh S 8.1 mph13.0 kmh 29.60 in1002.4 mb - 0.00 in0.0 mm 0.00 in0.0 mm
02:20 PM 51.5°F10.8°C 46.2°F7.9°C 82% Calm Calm 3.5 mph5.6 kmh 29.59 in1002.0 mb - 0.00 in0.0 mm 0.00 in0.0 mm
02:30 PM 51.7°F10.9°C 45.7°F7.6°C 80% 3.5 mph S5.6 kmh S 5.8 mph9.3 kmh 29.58 in1001.7 mb - 0.00 in0.0 mm 0.00 in0.0 mm
02:40 PM 52.1°F11.2°C 45.8°F7.7°C 79% 2.3 mph SW3.7 kmh SW 4.6 mph7.4 kmh 29.58 in1001.7 mb - 0.00 in0.0 mm 0.00 in0.0 mm
02:50 PM 52.1°F11.2°C 45.4°F7.4°C 78% 2.3 mph S3.7 kmh S 4.6 mph7.4 kmh 29.58 in1001.7 mb - 0.01 in0.3 mm 0.01 in0.3 mm
03:00 PM 51.6°F10.9°C 45.0°F7.2°C 78% Calm Calm 5.8 mph9.3 kmh 29.57 in1001.4 mb - 0.00 in0.0 mm 0.01 in0.3 mm
03:10 PM 51.1°F10.6°C 45.1°F7.3°C 80% 2.3 mph SSW3.7 kmh SSW 8.1 mph13.0 kmh 29.57 in1001.4 mb - 0.00 in0.0 mm 0.01 in0.3 mm
03:20 PM 50.6°F10.3°C 45.0°F7.2°C 81% Calm Calm 3.5 mph5.6 kmh 29.57 in1001.4 mb - 0.00 in0.0 mm 0.01 in0.3 mm
03:30 PM 50.4°F10.2°C 45.1°F7.3°C 82% Calm Calm -- 29.57 in1001.4 mb - 0.00 in0.0 mm 0.01 in0.3 mm
03:40 PM 50.3°F10.2°C 45.0°F7.2°C 82% Calm Calm -- 29.56 in1001.0 mb - 0.00 in0.0 mm 0.01 in0.3 mm
03:50 PM 50.1°F10.1°C 44.8°F7.1°C 82% Calm Calm -- 29.56 in1001.0 mb - 0.00 in0.0 mm 0.01 in0.3 mm
04:00 PM 49.9°F9.9°C 44.9°F7.2°C 83% Calm Calm -- 29.55 in1000.7 mb - 0.00 in0.0 mm 0.01 in0.3 mm
04:10 PM 49.7°F9.8°C 44.7°F7.1°C 83% Calm Calm -- 29.55 in1000.7 mb - 0.00 in0.0 mm 0.01 in0.3 mm
04:20 PM 49.5°F9.7°C 44.8°F7.1°C 84% Calm Calm -- 29.54 in1000.3 mb - 0.00 in0.0 mm 0.01 in0.3 mm
04:30 PM 49.2°F9.6°C 44.8°F7.1°C 85% Calm Calm -- 29.54 in1000.3 mb - 0.00 in0.0 mm 0.01 in0.3 mm
04:40 PM 48.9°F9.4°C 44.6°F7.0°C 85% Calm Calm -- 29.53 in1000.0 mb - 0.00 in0.0 mm 0.01 in0.3 mm
04:50 PM 48.6°F9.2°C 44.6°F7.0°C 86% Calm Calm -- 29.53 in1000.0 mb - 0.00 in0.0 mm 0.01 in0.3 mm
05:00 PM 48.3°F9.1°C 44.3°F6.8°C 86% Calm Calm -- 29.52 in999.7 mb - 0.00 in0.0 mm 0.01 in0.3 mm
05:10 PM 47.9°F8.8°C 43.9°F6.6°C 86% Calm Calm -- 29.52 in999.7 mb - 0.00 in0.0 mm 0.01 in0.3 mm
05:20 PM 47.5°F8.6°C 43.8°F6.6°C 87% Calm Calm -- 29.51 in999.3 mb - 0.00 in0.0 mm 0.01 in0.3 mm
05:30 PM 47.2°F8.4°C 43.8°F6.6°C 88% Calm Calm -- 29.51 in999.3 mb - 0.00 in0.0 mm 0.01 in0.3 mm
05:40 PM 46.9°F8.3°C 43.5°F6.4°C 88% Calm Calm -- 29.50 in999.0 mb - 0.00 in0.0 mm 0.01 in0.3 mm
05:50 PM 46.5°F8.1°C 43.4°F6.3°C 89% Calm Calm -- 29.50 in999.0 mb - 0.00 in0.0 mm 0.01 in0.3 mm
06:00 PM 46.3°F7.9°C 43.3°F6.3°C 89% Calm Calm -- 29.50 in999.0 mb - 0.00 in0.0 mm 0.01 in0.3 mm
06:10 PM 46.3°F7.9°C 43.6°F6.4°C 90% Calm Calm -- 29.49 in998.6 mb - 0.00 in0.0 mm 0.01 in0.3 mm
06:20 PM 46.4°F8.0°C 43.9°F6.6°C 91% Calm Calm -- 29.49 in998.6 mb - 0.00 in0.0 mm 0.01 in0.3 mm
06:30 PM 46.5°F8.1°C 44.0°F6.7°C 91% Calm Calm -- 29.48 in998.3 mb - 0.00 in0.0 mm 0.01 in0.3 mm
06:40 PM 46.7°F8.2°C 44.5°F6.9°C 92% Calm Calm -- 29.48 in998.3 mb - 0.00 in0.0 mm 0.01 in0.3 mm
06:50 PM 46.8°F8.2°C 44.6°F7.0°C 92% Calm Calm -- 29.47 in998.0 mb - 0.00 in0.0 mm 0.01 in0.3 mm
07:00 PM 46.8°F8.2°C 44.6°F7.0°C 92% Calm Calm -- 29.46 in997.6 mb - 0.00 in0.0 mm 0.01 in0.3 mm
07:10 PM 46.9°F8.3°C 45.0°F7.2°C 93% Calm Calm 1.2 mph1.9 kmh 29.46 in997.6 mb - 0.00 in0.0 mm 0.01 in0.3 mm
07:20 PM 47.0°F8.3°C 45.1°F7.3°C 93% Calm Calm -- 29.45 in997.3 mb - 0.00 in0.0 mm 0.01 in0.3 mm
07:30 PM 47.1°F8.4°C 45.2°F7.3°C 93% Calm Calm -- 29.45 in997.3 mb - 0.00 in0.0 mm 0.01 in0.3 mm
07:40 PM 47.2°F8.4°C 45.3°F7.4°C 93% Calm Calm -- 29.44 in997.0 mb - 0.01 in0.3 mm 0.02 in0.5 mm
07:50 PM 47.3°F8.5°C 45.7°F7.6°C 94% Calm Calm 3.5 mph5.6 kmh 29.43 in996.6 mb - 0.00 in0.0 mm 0.02 in0.5 mm
08:00 PM 47.4°F8.6°C 45.7°F7.6°C 94% Calm Calm 1.2 mph1.9 kmh 29.43 in996.6 mb - 0.00 in0.0 mm 0.02 in0.5 mm
08:10 PM 47.4°F8.6°C 45.8°F7.7°C 94% Calm Calm -- 29.42 in996.3 mb - 0.00 in0.0 mm 0.02 in0.5 mm
08:20 PM 47.5°F8.6°C 45.9°F7.7°C 94% Calm Calm -- 29.42 in996.3 mb - 0.02 in0.5 mm 0.03 in0.8 mm
08:30 PM 47.4°F8.6°C 45.8°F7.7°C 94% Calm Calm -- 29.42 in996.3 mb - 0.05 in1.3 mm 0.08 in2.0 mm
08:40 PM 47.5°F8.6°C 45.9°F7.7°C 94% Calm Calm -- 29.42 in996.3 mb - 0.08 in2.0 mm 0.16 in4.1 mm
08:50 PM 47.6°F8.7°C 46.2°F7.9°C 95% Calm Calm -- 29.41 in995.9 mb - 0.06 in1.5 mm 0.20 in5.1 mm
09:00 PM 47.6°F8.7°C 46.2°F7.9°C 95% Calm Calm -- 29.41 in995.9 mb - 0.03 in0.8 mm 0.23 in5.8 mm
09:10 PM 47.6°F8.7°C 46.2°F7.9°C 95% Calm Calm -- 29.40 in995.6 mb - 0.03 in0.8 mm 0.26 in6.6 mm
09:20 PM 47.6°F8.7°C 46.3°F7.9°C 95% Calm Calm -- 29.39 in995.3 mb - 0.03 in0.8 mm 0.28 in7.1 mm
09:30 PM 47.6°F8.7°C 46.2°F7.9°C 95% Calm Calm -- 29.39 in995.3 mb - 0.03 in0.8 mm 0.32 in8.1 mm
09:40 PM 47.5°F8.6°C 46.1°F7.8°C 95% Calm Calm -- 29.39 in995.3 mb - 0.03 in0.8 mm 0.34 in8.6 mm
09:50 PM 47.3°F8.5°C 46.0°F7.8°C 95% Calm Calm -- 29.38 in994.9 mb - 0.04 in1.0 mm 0.38 in9.7 mm
10:00 PM 47.2°F8.4°C 45.8°F7.7°C 95% Calm Calm -- 29.37 in994.6 mb - 0.06 in1.5 mm 0.43 in10.9 mm
10:10 PM 47.0°F8.3°C 45.6°F7.6°C 95% 1.2 mph E1.9 kmh E 5.8 mph9.3 kmh 29.37 in994.6 mb - 0.03 in0.8 mm 0.45 in11.4 mm
10:20 PM 46.9°F8.3°C 45.5°F7.5°C 95% Calm Calm -- 29.36 in994.2 mb - 0.01 in0.3 mm 0.46 in11.7 mm
10:30 PM 46.7°F8.2°C 45.3°F7.4°C 95% Calm Calm -- 29.36 in994.2 mb - 0.02 in0.5 mm 0.48 in12.2 mm
10:40 PM 46.5°F8.1°C 45.1°F7.3°C 95% Calm Calm -- 29.36 in994.2 mb - 0.01 in0.3 mm 0.49 in12.4 mm
10:50 PM 46.4°F8.0°C 45.0°F7.2°C 95% Calm Calm -- 29.35 in993.9 mb - 0.00 in0.0 mm 0.49 in12.4 mm
11:00 PM 46.3°F7.9°C 44.9°F7.2°C 95% Calm Calm -- 29.35 in993.9 mb - 0.00 in0.0 mm 0.49 in12.4 mm
11:10 PM 46.1°F7.8°C 45.0°F7.2°C 96% Calm Calm -- 29.35 in993.9 mb - 0.00 in0.0 mm 0.49 in12.4 mm
11:20 PM 46.0°F7.8°C 44.6°F7.0°C 95% Calm Calm -- 29.34 in993.6 mb - 0.00 in0.0 mm 0.49 in12.4 mm
11:30 PM 45.9°F7.7°C 44.8°F7.1°C 96% Calm Calm -- 29.33 in993.2 mb - 0.00 in0.0 mm 0.49 in12.4 mm
11:40 PM 45.8°F7.7°C 44.7°F7.1°C 96% Calm Calm -- 29.33 in993.2 mb - 0.01 in0.3 mm 0.50 in12.7 mm
11:50 PM 45.7°F7.6°C 44.6°F7.0°C 96% Calm Calm -- 29.33 in993.2 mb - 0.00 in0.0 mm 0.50 in12.7 mm